Chipola Terrace, FL

2:11 PM CDT on May 23, 2017 (GMT -0500)
Marianna Municipal | | Change Station
Active Advisory: Tornado Watch

Elev 108 ft 30.84 °N, 85.18 °W | Updated 18 minutes ago

Mostly Cloudy
Mostly Cloudy
79 °F
Feels Like 79 °F
N
15
Wind Variable Wind from SW
Gusts 24 mph

Today
High -- | Low -- °F
--% Chance of Precip.
Yesterday
High -- | Low -- °F
Precip. -- in
Pressure 29.73 in
Visibility 10.0 miles
Clouds Scattered Clouds 2400 ft
Mostly Cloudy 3200 ft
Mostly Cloudy 6000 ft
Dew Point 72 °F
Humidity 79%
Rainfall 0.53 in
Snow Depth Not available.
5:41 AM 7:34 PM
Waning Crescent, 6% visible
METAR KMAI 231853Z AUTO 22013G21KT 10SM SCT024 BKN032 BKN060 26/22 A2974 RMK AO2 LTG DSNT SE AND S SLP068 T02610222
Pressure 29.73 in
Visibility 10.0 miles
Clouds Scattered Clouds 2400 ft
Mostly Cloudy 3200 ft
Mostly Cloudy 6000 ft
Dew Point 72 °F
Humidity 79%
Rainfall 0.53 in
Snow Depth Not available.
5:41 AM 7:34 PM
Waning Crescent, 6% visible
METAR KMAI 231853Z AUTO 22013G21KT 10SM SCT024 BKN032 BKN060 26/22 A2974 RMK AO2 LTG DSNT SE AND S SLP068 T02610222

Get Your Daily Forecast Email!

Thanks for signing up!

Be on the lookout for a verification email in your inbox.

You'll start receiving severe weather alerts in your inbox..

×

10-Day Weather Forecast

Almanac

Astronomy

May. 23, 2017 Rise Set
Actual Time
Civil Twilight
Nautical Twilight
Astronomical Twilight
Moon
Length of Visible Light
Length of Day
Tomorrow will be .
, % of the Moon is Illuminated

Today's Extremes

State Highs State Lows

Community

WunderPhotos

Category 6

Welcome to Category 6. This is the collective home for Weather Underground's featured writeups by Dr. Jeff Masters (right), Bob Henson (left), Chris Burt, and other regular contributors.

Nearby

Air Quality

  Air Quality AQ Index Pollutant
Not available.

Snow Depth

Station Depth Elevation

Earthquake Activity

City Distance Mag. Time & Date
Minimum magnitude displayed is 2.5.

Coastal Water Temperatures

Place Temperature

Stations

Nearby Weather Stations

Station Location Temp. Windchill Dew Point Humidity Wind Precip. Elev Updated Type
                   

Watches & Warnings

Tornado Watch
Issued: 3:03 PM EDT May. 23, 2017 – National Weather Service

Tornado Watch 257 remains in effect until 600 PM EDT for the
following locations

FL
. Florida counties included are

Bay Calhoun Franklin
Gadsden Gulf Holmes
Jackson Jefferson Leon
Liberty Madison Wakulla
Walton Washington